createdAt,value
2018-08-04T00:00:57.804Z,12.70
2018-08-04T00:03:26.829Z,11.73
2018-08-04T00:05:55.627Z,12.30
2018-08-04T00:08:24.410Z,12.10
2018-08-04T00:10:53.129Z,12.43
2018-08-04T00:13:21.968Z,12.67
2018-08-04T00:15:50.607Z,12.80
2018-08-04T00:18:19.534Z,13.67
2018-08-04T00:20:48.309Z,13.60
2018-08-04T00:23:17.081Z,13.83
2018-08-04T00:25:45.729Z,14.60
2018-08-04T00:28:14.542Z,14.33
2018-08-04T00:30:43.294Z,12.70
2018-08-04T00:33:12.085Z,13.77
2018-08-04T00:35:40.857Z,12.80
2018-08-04T00:38:09.716Z,13.57
2018-08-04T00:40:38.448Z,14.20
2018-08-04T00:43:07.239Z,14.77
2018-08-04T00:45:36.001Z,14.03
2018-08-04T00:48:04.784Z,13.10
2018-08-04T00:50:33.707Z,13.40
2018-08-04T00:53:02.356Z,13.53
2018-08-04T00:55:31.062Z,14.13
2018-08-04T00:57:59.880Z,13.63
2018-08-04T01:00:28.596Z,13.73
2018-08-04T01:02:57.309Z,12.70
2018-08-04T01:05:25.946Z,13.50
2018-08-04T01:07:54.602Z,11.83
2018-08-04T01:10:23.307Z,13.90
2018-08-04T01:12:52.134Z,13.57
2018-08-04T01:15:20.932Z,13.10
2018-08-04T01:17:49.773Z,13.30
2018-08-04T01:20:18.524Z,12.00
2018-08-04T01:22:47.309Z,12.30
2018-08-04T01:25:16.138Z,12.87
2018-08-04T01:27:44.785Z,13.70
2018-08-04T01:30:13.471Z,12.53
2018-08-04T01:32:42.331Z,13.17
2018-08-04T01:35:11.071Z,12.70
2018-08-04T01:37:39.712Z,13.03
2018-08-04T01:40:08.434Z,12.60
2018-08-04T01:42:37.071Z,13.03
2018-08-04T01:45:06.050Z,13.00
2018-08-04T01:47:34.782Z,14.40
2018-08-04T01:50:03.546Z,12.57
2018-08-04T01:52:32.194Z,13.00
2018-08-04T01:55:00.853Z,13.30
2018-08-04T01:57:29.685Z,12.50
2018-08-04T01:59:58.756Z,13.87
2018-08-04T02:02:27.540Z,12.40
2018-08-04T02:04:56.197Z,13.57
2018-08-04T02:07:25.022Z,13.10
2018-08-04T02:09:53.702Z,13.10
2018-08-04T02:12:22.759Z,12.20
2018-08-04T02:14:51.535Z,11.50
2018-08-04T02:17:20.333Z,12.70
2018-08-04T02:19:49.078Z,12.03
2018-08-04T02:22:17.736Z,11.27
2018-08-04T02:24:46.665Z,11.00
2018-08-04T02:27:15.427Z,11.77
2018-08-04T02:29:44.250Z,12.83
2018-08-04T02:32:13.150Z,13.60
2018-08-04T02:34:42.136Z,13.70
2018-08-04T02:37:10.873Z,13.57
2018-08-04T02:39:39.681Z,13.17
2018-08-04T02:42:08.396Z,13.63
2018-08-04T02:44:37.140Z,12.10
2018-08-04T02:47:05.833Z,16.10
2018-08-04T02:49:34.620Z,14.03
2018-08-04T02:52:03.482Z,14.10
2018-08-04T02:54:32.193Z,14.00
2018-08-04T02:57:00.862Z,13.17
2018-08-04T02:59:29.523Z,12.00
2018-08-04T03:01:58.275Z,12.23
2018-08-04T03:04:27.042Z,13.40
2018-08-04T03:06:55.726Z,13.77
2018-08-04T03:09:24.437Z,12.67
2018-08-04T03:11:53.124Z,13.40
2018-08-04T03:14:21.985Z,12.57
2018-08-04T03:16:50.770Z,11.73
2018-08-04T03:19:20.015Z,12.90
2018-08-04T03:21:48.698Z,13.83
2018-08-04T03:24:17.383Z,13.30
2018-08-04T03:26:46.063Z,13.20
2018-08-04T03:29:14.741Z,12.40
2018-08-04T03:31:43.475Z,12.90
2018-08-04T03:34:12.309Z,14.43
2018-08-04T03:36:41.050Z,14.53
2018-08-04T03:39:11.338Z,14.03
2018-08-04T03:41:40.882Z,13.30
2018-08-04T03:44:09.643Z,13.77
2018-08-04T03:46:38.755Z,13.23
2018-08-04T03:49:07.569Z,14.10
2018-08-04T03:51:36.322Z,13.57
2018-08-04T03:54:05.136Z,13.17
2018-08-04T03:56:33.870Z,14.13
2018-08-04T03:59:02.646Z,13.70
2018-08-04T04:01:31.359Z,13.37
2018-08-04T04:04:00.042Z,13.97
2018-08-04T04:06:28.725Z,13.53
2018-08-04T04:08:57.646Z,14.57
2018-08-04T04:11:26.317Z,13.53
2018-08-04T04:13:55.026Z,13.30
2018-08-04T04:16:23.794Z,15.20
2018-08-04T04:18:52.815Z,14.80
2018-08-04T04:21:21.533Z,14.97
2018-08-04T04:23:50.251Z,15.30
2018-08-04T04:26:18.911Z,13.23
2018-08-04T04:28:47.861Z,14.60
2018-08-04T04:31:16.766Z,13.20
2018-08-04T04:33:45.630Z,13.60
2018-08-04T04:36:14.435Z,14.67
2018-08-04T04:38:43.241Z,13.80
2018-08-04T04:41:11.969Z,14.03
2018-08-04T04:43:40.658Z,15.00
2018-08-04T04:46:09.477Z,13.13
2018-08-04T04:48:38.189Z,13.40
2018-08-04T04:51:07.047Z,13.73
2018-08-04T04:53:35.689Z,14.07
2018-08-04T04:56:04.562Z,13.80
2018-08-04T04:58:33.349Z,15.70
2018-08-04T05:01:02.101Z,13.60
2018-08-04T05:03:30.810Z,14.03
2018-08-04T05:05:59.605Z,14.00
2018-08-04T05:08:28.242Z,13.47
2018-08-04T05:10:56.982Z,13.70
2018-08-04T05:13:25.702Z,13.30
2018-08-04T05:15:54.509Z,13.07
2018-08-04T05:18:23.231Z,12.93
2018-08-04T05:20:51.877Z,13.27
2018-08-04T05:23:20.586Z,14.40
2018-08-04T05:25:49.292Z,14.27
2018-08-04T05:28:17.942Z,14.70
2018-08-04T05:30:46.637Z,14.20
2018-08-04T05:33:15.362Z,15.60
2018-08-04T05:35:44.046Z,13.63
2018-08-04T05:38:12.805Z,14.73
2018-08-04T05:40:41.585Z,14.00
2018-08-04T05:43:10.320Z,15.43
2018-08-04T05:45:38.957Z,15.70
2018-08-04T05:48:07.695Z,13.83
2018-08-04T05:50:36.374Z,14.53
2018-08-04T05:53:05.173Z,15.73
2018-08-04T05:55:33.901Z,15.20
2018-08-04T05:58:02.793Z,14.57
2018-08-04T06:00:31.630Z,15.83
2018-08-04T06:03:00.384Z,15.63
2018-08-04T06:05:29.114Z,15.47
2018-08-04T06:07:57.760Z,14.70
2018-08-04T06:10:26.459Z,14.83
2018-08-04T06:12:55.157Z,14.70
2018-08-04T06:15:23.977Z,15.70
2018-08-04T06:17:52.708Z,15.30
2018-08-04T06:20:21.409Z,15.67
2018-08-04T06:22:50.090Z,16.13
2018-08-04T06:25:18.756Z,16.70
2018-08-04T06:27:47.604Z,15.33
2018-08-04T06:30:16.364Z,15.10
2018-08-04T06:32:45.150Z,13.67
2018-08-04T06:35:13.931Z,15.70
2018-08-04T06:37:42.610Z,16.00
2018-08-04T06:40:11.277Z,14.80
2018-08-04T06:42:40.140Z,14.23
2018-08-04T06:45:08.998Z,15.63
2018-08-04T06:47:37.653Z,15.10
2018-08-04T06:50:07.109Z,13.43
2018-08-04T06:52:36.183Z,14.40
2018-08-04T06:55:05.679Z,12.10
2018-08-04T06:57:34.479Z,13.03
2018-08-04T07:00:03.311Z,13.20
2018-08-04T07:02:32.542Z,12.50
2018-08-04T07:05:01.188Z,13.97
2018-08-04T07:07:30.173Z,13.20
2018-08-04T07:09:58.929Z,14.47
2018-08-04T07:12:27.593Z,13.03
2018-08-04T07:14:56.441Z,13.80
2018-08-04T07:17:25.197Z,12.03
2018-08-04T07:19:53.896Z,13.57
2018-08-04T07:22:22.603Z,14.10
2018-08-04T07:24:51.599Z,13.50
2018-08-04T07:27:20.709Z,13.07
2018-08-04T07:29:49.343Z,13.30
2018-08-04T07:32:18.173Z,13.50
2018-08-04T07:34:47.095Z,13.67
2018-08-04T07:37:15.721Z,14.20
2018-08-04T07:39:44.558Z,12.80
2018-08-04T07:42:13.385Z,15.10
2018-08-04T07:44:42.126Z,13.10
2018-08-04T07:47:10.807Z,12.70
2018-08-04T07:49:39.545Z,13.10
2018-08-04T07:52:08.691Z,12.97
2018-08-04T07:54:37.888Z,12.80
2018-08-04T07:57:06.782Z,11.90
2018-08-04T07:59:35.696Z,13.80
2018-08-04T08:02:04.455Z,12.67
2018-08-04T08:04:33.331Z,11.30
2018-08-04T08:07:02.198Z,11.87
2018-08-04T08:09:31.454Z,11.57
2018-08-04T08:12:00.227Z,11.10
2018-08-04T08:14:28.929Z,12.23
2018-08-04T08:16:57.593Z,12.20
2018-08-04T08:19:26.673Z,11.50
2018-08-04T08:21:55.365Z,10.90
2018-08-04T08:24:24.059Z,10.73
2018-08-04T08:26:52.724Z,11.17
2018-08-04T08:29:21.688Z,11.60
2018-08-04T08:31:50.609Z,12.07
2018-08-04T08:34:19.625Z,10.83
2018-08-04T08:36:48.419Z,10.80
2018-08-04T08:39:17.101Z,10.40
2018-08-04T08:41:45.906Z,10.20
2018-08-04T08:44:14.800Z,11.00
2018-08-04T08:46:43.703Z,10.53
2018-08-04T08:49:12.600Z,10.20
2018-08-04T08:51:42.990Z,10.13
2018-08-04T08:54:12.417Z,11.20
2018-08-04T08:56:41.211Z,11.30
2018-08-04T08:59:10.700Z,9.57
2018-08-04T09:01:39.492Z,9.20
2018-08-04T09:04:08.703Z,9.30
2018-08-04T09:06:37.577Z,8.80
2018-08-04T09:09:08.921Z,10.57
2018-08-04T09:11:37.722Z,8.80
2018-08-04T09:14:06.806Z,10.30
2018-08-04T09:16:35.482Z,8.77
2018-08-04T09:19:04.521Z,9.30
2018-08-04T09:21:33.249Z,8.20
2018-08-04T09:24:01.896Z,8.93
2018-08-04T09:26:30.641Z,8.33
2018-08-04T09:28:59.328Z,7.97
2018-08-04T09:31:28.041Z,8.53
2018-08-04T09:33:56.717Z,9.93
2018-08-04T09:36:25.390Z,7.23
2018-08-04T09:38:54.032Z,8.80
2018-08-04T09:41:22.750Z,8.20
2018-08-04T09:43:51.380Z,8.07
2018-08-04T09:46:20.938Z,7.83
2018-08-04T09:48:49.764Z,8.63
2018-08-04T09:51:18.402Z,7.57
2018-08-04T09:53:47.047Z,7.67
2018-08-04T09:56:15.833Z,7.90
2018-08-04T09:58:44.465Z,7.57
2018-08-04T10:01:18.528Z,7.60
2018-08-04T10:03:56.910Z,7.40
2018-08-04T10:06:26.000Z,8.73
2018-08-04T10:08:54.832Z,9.03
2018-08-04T10:11:23.617Z,7.70
2018-08-04T10:13:52.469Z,9.43
2018-08-04T10:16:21.268Z,8.90
2018-08-04T10:18:50.030Z,9.10
2018-08-04T10:21:18.734Z,8.93
2018-08-04T10:23:47.442Z,8.50
2018-08-04T10:26:16.090Z,9.10
2018-08-04T10:28:44.804Z,8.33
2018-08-04T10:31:13.450Z,8.70
2018-08-04T10:33:42.309Z,9.40
2018-08-04T10:36:11.070Z,8.27
2018-08-04T10:38:39.881Z,9.27
2018-08-04T10:41:08.649Z,8.10
2018-08-04T10:43:37.368Z,7.97
2018-08-04T10:46:06.162Z,9.10
2018-08-04T10:48:34.998Z,8.53
2018-08-04T10:51:04.238Z,7.87
2018-08-04T10:53:32.954Z,7.50
2018-08-04T10:56:01.701Z,7.90
2018-08-04T10:58:30.481Z,9.07
2018-08-04T11:00:59.401Z,7.20
2018-08-04T11:03:28.196Z,7.80
2018-08-04T11:05:56.942Z,7.23
2018-08-04T11:08:25.614Z,7.27
2018-08-04T11:10:54.257Z,7.50
2018-08-04T11:13:23.338Z,7.60
2018-08-04T11:15:52.107Z,7.73
2018-08-04T11:18:20.899Z,7.90
2018-08-04T11:20:49.617Z,6.97
2018-08-04T11:23:18.265Z,7.53
2018-08-04T11:25:47.019Z,7.73
2018-08-04T11:28:15.911Z,8.20
2018-08-04T11:30:44.584Z,7.57
2018-08-04T11:33:13.309Z,7.03
2018-08-04T11:35:41.957Z,8.10
2018-08-04T11:38:10.654Z,9.27
2018-08-04T11:40:39.507Z,7.60
2018-08-04T11:43:08.185Z,8.33
2018-08-04T11:45:37.032Z,7.87
2018-08-04T11:48:05.745Z,8.60
2018-08-04T11:50:34.542Z,8.20
2018-08-04T11:53:03.400Z,8.43
2018-08-04T11:55:32.221Z,8.93
2018-08-04T11:58:01.209Z,8.17
2018-08-04T12:00:29.897Z,7.43
2018-08-04T12:02:58.731Z,8.50
2018-08-04T12:05:27.526Z,7.97
2018-08-04T12:07:56.281Z,8.10
2018-08-04T12:10:25.092Z,7.03
2018-08-04T12:12:53.857Z,7.90
2018-08-04T12:15:22.529Z,8.10
2018-08-04T12:17:51.295Z,7.20
2018-08-04T12:20:19.998Z,6.87
2018-08-04T12:22:49.234Z,6.90
2018-08-04T12:25:17.964Z,6.60
2018-08-04T12:27:46.746Z,6.10
2018-08-04T12:30:15.419Z,6.73
2018-08-04T12:32:44.144Z,6.40
2018-08-04T12:35:13.187Z,7.13
2018-08-04T12:37:41.813Z,6.60
2018-08-04T12:40:10.454Z,6.27
2018-08-04T12:42:39.117Z,5.57
2018-08-04T12:45:08.627Z,6.13
2018-08-04T12:47:37.739Z,5.23
2018-08-04T12:50:06.785Z,6.30
2018-08-04T12:52:35.504Z,5.40
2018-08-04T12:55:04.349Z,5.37
2018-08-04T12:57:33.210Z,5.53
2018-08-04T13:00:02.095Z,5.73
2018-08-04T13:02:30.879Z,5.40
2018-08-04T13:04:59.659Z,5.60
2018-08-04T13:07:29.427Z,5.30
2018-08-04T13:09:58.123Z,7.60
2018-08-04T13:12:27.079Z,5.40
2018-08-04T13:14:55.851Z,4.60
2018-08-04T13:17:24.699Z,5.30
2018-08-04T13:19:54.145Z,5.70
2018-08-04T13:22:23.044Z,4.70
2018-08-04T13:24:52.122Z,4.47
2018-08-04T13:27:21.102Z,5.20
2018-08-04T13:29:49.882Z,4.80
2018-08-04T13:32:18.782Z,5.33
2018-08-04T13:34:47.787Z,5.40
2018-08-04T13:37:16.831Z,4.93
2018-08-04T13:39:45.514Z,5.23
2018-08-04T13:42:14.590Z,5.43
2018-08-04T13:44:43.338Z,6.13
2018-08-04T13:47:12.018Z,5.73
2018-08-04T13:49:40.683Z,7.97
2018-08-04T13:52:09.425Z,9.00
2018-08-04T13:54:38.379Z,10.00
2018-08-04T13:57:07.301Z,8.10
2018-08-04T13:59:36.115Z,10.00
2018-08-04T14:02:04.964Z,7.43
2018-08-04T14:04:33.662Z,9.40
2018-08-04T14:07:02.376Z,8.03
2018-08-04T14:09:31.038Z,7.07
2018-08-04T14:11:59.946Z,8.27
2018-08-04T14:14:28.681Z,7.97
2018-08-04T14:16:57.428Z,8.40
2018-08-04T14:19:26.296Z,10.67
2018-08-04T14:21:54.993Z,10.90
2018-08-04T14:24:23.803Z,12.23
2018-08-04T14:26:52.798Z,16.77
2018-08-04T14:29:21.560Z,12.90
2018-08-04T14:31:50.287Z,10.77
2018-08-04T14:34:19.026Z,9.63
2018-08-04T14:36:47.762Z,11.20
2018-08-04T14:39:16.545Z,13.27
2018-08-04T14:41:45.343Z,11.40
2018-08-04T14:44:14.220Z,11.40
2018-08-04T14:46:42.885Z,11.27
2018-08-04T14:49:11.561Z,12.43
2018-08-04T14:51:40.248Z,33.43
2018-08-04T14:54:08.953Z,25.73
2018-08-04T14:56:37.642Z,16.50
2018-08-04T14:59:07.134Z,17.00
2018-08-04T15:01:36.150Z,14.97
2018-08-04T15:04:04.894Z,12.27
2018-08-04T15:06:33.868Z,12.00
2018-08-04T15:09:02.562Z,13.30
2018-08-04T15:11:31.311Z,12.00
2018-08-04T15:14:00.074Z,21.93
2018-08-04T15:16:28.962Z,22.00
2018-08-04T15:18:57.641Z,12.47
2018-08-04T15:21:26.690Z,11.80
2018-08-04T15:23:55.564Z,17.50
2018-08-04T15:26:24.913Z,13.30
2018-08-04T15:28:53.727Z,20.70
2018-08-04T15:31:22.561Z,16.10
2018-08-04T15:33:51.377Z,20.60
2018-08-04T15:36:20.194Z,13.50
2018-08-04T15:38:49.207Z,10.33
2018-08-04T15:41:18.286Z,12.00
2018-08-04T15:43:47.013Z,11.37
2018-08-04T15:46:15.821Z,12.33
2018-08-04T15:48:44.547Z,12.53
2018-08-04T15:51:13.286Z,12.23
2018-08-04T15:53:42.130Z,12.10
2018-08-04T15:56:11.089Z,12.30
2018-08-04T15:58:39.830Z,10.93
2018-08-04T16:01:08.616Z,12.13
2018-08-04T16:03:37.305Z,12.97
2018-08-04T16:06:06.230Z,11.47
2018-08-04T16:08:34.974Z,13.57
2018-08-04T16:11:03.753Z,11.93
2018-08-04T16:13:32.504Z,12.03
2018-08-04T16:16:01.314Z,12.80
2018-08-04T16:18:30.113Z,13.03
2018-08-04T16:20:58.917Z,30.30
2018-08-04T16:23:27.920Z,37.47
2018-08-04T16:25:56.585Z,21.47
2018-08-04T16:28:25.519Z,16.10
2018-08-04T16:30:54.361Z,14.50
2018-08-04T16:33:23.041Z,12.53
2018-08-04T16:35:52.321Z,12.13
2018-08-04T16:38:21.049Z,11.00
2018-08-04T16:40:49.765Z,11.23
2018-08-04T16:43:18.560Z,9.30
2018-08-04T16:45:47.450Z,10.60
2018-08-04T16:48:16.174Z,9.73
2018-08-04T16:50:44.874Z,9.77
2018-08-04T16:53:13.728Z,9.97
2018-08-04T16:55:42.367Z,9.80
2018-08-04T16:58:11.052Z,9.00
2018-08-04T17:00:39.810Z,9.60
2018-08-04T17:03:08.524Z,10.13
2018-08-04T17:05:37.347Z,8.53
2018-08-04T17:08:06.933Z,12.13
2018-08-04T17:10:35.919Z,11.20
2018-08-04T17:13:04.716Z,12.23
2018-08-04T17:15:33.375Z,9.20
2018-08-04T17:18:02.436Z,9.33
2018-08-04T17:20:31.111Z,19.20
2018-08-04T17:22:59.804Z,17.50
2018-08-04T17:25:28.558Z,28.20
2018-08-04T17:27:57.230Z,32.23
2018-08-04T17:30:31.594Z,31.23
2018-08-04T17:33:00.354Z,14.30
2018-08-04T17:35:29.387Z,13.33
2018-08-04T17:37:58.068Z,17.13
2018-08-04T17:40:27.066Z,14.97
2018-08-04T17:42:55.848Z,34.80
2018-08-04T17:45:24.572Z,22.30
2018-08-04T17:47:53.299Z,13.90
2018-08-04T17:50:22.418Z,36.00
2018-08-04T17:52:51.410Z,30.40
2018-08-04T17:55:20.296Z,15.70
2018-08-04T17:57:49.293Z,11.00
2018-08-04T18:00:18.850Z,8.53
2018-08-04T18:02:47.500Z,12.13
2018-08-04T18:05:16.349Z,31.73
2018-08-04T18:07:45.047Z,43.50
2018-08-04T18:10:13.852Z,42.70
2018-08-04T18:12:42.617Z,31.93
2018-08-04T18:15:11.807Z,25.70
2018-08-04T18:17:40.478Z,20.67
2018-08-04T18:20:09.281Z,24.60
2018-08-04T18:22:38.043Z,101.67
2018-08-04T18:25:07.478Z,53.33
2018-08-04T18:27:36.310Z,39.83
2018-08-04T18:30:05.089Z,32.10
2018-08-04T18:32:34.618Z,24.50
2018-08-04T18:35:03.532Z,32.27
2018-08-04T18:37:32.257Z,31.33
2018-08-04T18:40:00.936Z,20.10
2018-08-04T18:42:30.206Z,28.57
2018-08-04T18:44:59.050Z,16.63
2018-08-04T18:47:27.736Z,16.53
2018-08-04T18:49:56.484Z,15.43
2018-08-04T18:52:25.176Z,14.37
2018-08-04T18:54:53.942Z,12.70
2018-08-04T18:57:22.904Z,12.20
2018-08-04T18:59:52.301Z,19.63
2018-08-04T19:02:21.078Z,17.37
2018-08-04T19:04:49.764Z,19.57
2018-08-04T19:07:18.573Z,51.30
2018-08-04T19:09:48.104Z,31.30
2018-08-04T19:12:16.775Z,31.70
2018-08-04T19:14:45.571Z,40.23
2018-08-04T19:17:14.338Z,27.33
2018-08-04T19:19:43.045Z,33.37
2018-08-04T19:22:11.918Z,79.90
2018-08-04T19:24:40.572Z,48.60
2018-08-04T19:27:09.340Z,42.73
2018-08-04T19:29:38.030Z,51.67
2018-08-04T19:32:06.832Z,42.43
2018-08-04T19:34:35.911Z,21.23
2018-08-04T19:37:04.738Z,19.80
2018-08-04T19:39:33.651Z,21.57
2018-08-04T19:42:02.506Z,34.90
2018-08-04T19:44:31.327Z,22.87
2018-08-04T19:47:00.077Z,34.53
2018-08-04T19:49:29.009Z,32.50
2018-08-04T19:51:57.699Z,47.77
2018-08-04T19:54:26.517Z,24.83
2018-08-04T19:56:55.709Z,47.50
2018-08-04T19:59:24.510Z,47.47
2018-08-04T20:01:53.281Z,48.27
2018-08-04T20:04:22.273Z,43.00
2018-08-04T20:06:51.053Z,59.70
2018-08-04T20:09:19.685Z,56.23
2018-08-04T20:11:48.522Z,68.60
2018-08-04T20:14:17.181Z,37.13
2018-08-04T20:16:45.829Z,27.50
2018-08-04T20:19:14.585Z,20.17
2018-08-04T20:21:43.297Z,22.23
2018-08-04T20:24:12.466Z,19.17
2018-08-04T20:26:41.230Z,19.47
2018-08-04T20:29:10.136Z,20.37
2018-08-04T20:31:38.939Z,18.73
2018-08-04T20:34:07.578Z,17.43
2018-08-04T20:36:36.627Z,20.20
2018-08-04T20:39:08.348Z,20.23
2018-08-04T20:41:37.468Z,21.67
2018-08-04T20:44:06.239Z,19.10
2018-08-04T20:46:34.956Z,18.70
2018-08-04T20:49:03.793Z,18.37
2018-08-04T20:51:32.494Z,15.47
2018-08-04T20:54:01.192Z,15.80
2018-08-04T20:56:30.085Z,16.47
2018-08-04T20:58:58.727Z,15.73
2018-08-04T21:02:08.672Z,15.63
2018-08-04T21:04:37.818Z,16.50
2018-08-04T21:07:07.451Z,18.87
2018-08-04T21:09:36.201Z,21.17
2018-08-04T21:12:04.897Z,17.63
2018-08-04T21:14:34.002Z,16.10
2018-08-04T21:17:03.283Z,14.30
2018-08-04T21:19:32.014Z,16.27
2018-08-04T21:22:00.966Z,17.97
2018-08-04T21:24:29.672Z,15.57
2018-08-04T21:26:58.452Z,14.33
2018-08-04T21:29:27.265Z,14.73
2018-08-04T21:31:57.108Z,17.27
2018-08-04T21:34:25.808Z,16.03
2018-08-04T21:36:54.529Z,15.33
2018-08-04T21:39:23.245Z,16.10
2018-08-04T21:41:51.966Z,15.00
2018-08-04T21:44:20.854Z,14.13
2018-08-04T21:46:50.631Z,15.63
2018-08-04T21:49:19.986Z,15.57
2018-08-04T21:51:49.939Z,14.33
2018-08-04T21:54:19.921Z,15.10
2018-08-04T21:56:48.769Z,16.40
2018-08-04T21:59:17.430Z,14.83
2018-08-04T22:01:51.336Z,16.10
2018-08-04T22:04:19.910Z,15.17
2018-08-04T22:07:59.602Z,14.20
2018-08-04T22:10:28.582Z,14.20
2018-08-04T22:12:57.797Z,15.67
2018-08-04T22:15:26.759Z,15.23
2018-08-04T22:17:55.570Z,14.30
2018-08-04T22:20:25.058Z,15.17
2018-08-04T22:22:54.090Z,14.37
2018-08-04T22:25:25.385Z,14.57
2018-08-04T22:27:54.850Z,14.20
2018-08-04T22:30:24.297Z,14.40
2018-08-04T22:32:53.737Z,13.87
2018-08-04T22:35:22.828Z,14.23
2018-08-04T22:38:04.717Z,13.27
2018-08-04T22:40:33.540Z,12.17
2018-08-04T22:43:02.391Z,14.60
2018-08-04T22:46:09.809Z,13.80
2018-08-04T22:48:38.705Z,14.80
2018-08-04T22:51:07.719Z,12.83
2018-08-04T22:53:37.093Z,14.33
2018-08-04T22:56:06.046Z,15.10
2018-08-04T22:58:34.775Z,13.40
2018-08-04T23:01:03.559Z,14.43
2018-08-04T23:03:32.222Z,14.33
2018-08-04T23:06:01.455Z,13.90
2018-08-04T23:08:30.212Z,15.17
2018-08-04T23:10:58.877Z,13.50
2018-08-04T23:13:27.619Z,14.60
2018-08-04T23:15:56.350Z,13.83
2018-08-04T23:18:25.201Z,15.27
2018-08-04T23:20:53.943Z,14.93
2018-08-04T23:23:22.684Z,16.43
2018-08-04T23:25:51.342Z,14.37
2018-08-04T23:28:20.010Z,13.23
2018-08-04T23:30:48.742Z,14.43
2018-08-04T23:33:17.589Z,15.50
2018-08-04T23:35:46.545Z,13.70
2018-08-04T23:38:15.285Z,14.17
2018-08-04T23:40:43.968Z,14.07
2018-08-04T23:43:12.978Z,13.53
2018-08-04T23:45:41.633Z,14.37
2018-08-04T23:48:10.359Z,13.27
2018-08-04T23:50:39.079Z,15.13
2018-08-04T23:53:07.921Z,13.77
2018-08-04T23:55:36.703Z,14.00
2018-08-04T23:58:05.625Z,13.10
